Terminal Aerodrome Forecast
Issued by NWS Greer, SC

Home | Current Version | Previous Version | Text Only | Print | Product List | Glossary On
Versions: 1 2 3 4 5 6 7 8 9 10 11 12 13 14 15
606
FTUS42 KGSP 221131
TAFAVL
TAF
KAVL 221131Z 2212/2312 34010G18KT P6SM FEW035
     FM221400 35010KT P6SM FEW250
     FM230100 33005KT P6SM FEW250=

USA.gov is the U.S. government's official web portal to all federal, state and local government web resources and services.